createdAt,value
2022-08-08T00:00:54.390Z,17.78
2022-08-08T00:02:52.734Z,17.69
2022-08-08T00:05:43.925Z,17.74
2022-08-08T00:08:34.967Z,17.56
2022-08-08T00:11:28.004Z,17.66
2022-08-08T00:14:59.291Z,17.48
2022-08-08T00:18:01.973Z,17.55
2022-08-08T00:20:36.052Z,17.54
2022-08-08T00:23:08.417Z,17.58
2022-08-08T00:25:51.304Z,17.53
2022-08-08T00:28:35.755Z,17.55
2022-08-08T00:32:14.967Z,17.51
2022-08-08T00:34:51.101Z,17.51
2022-08-08T00:37:47.667Z,17.51
2022-08-08T00:41:12.599Z,17.46
2022-08-08T00:43:45.885Z,17.28
2022-08-08T00:46:57.449Z,17.24
2022-08-08T00:49:58.476Z,17.23
2022-08-08T00:52:48.489Z,17.25
2022-08-08T00:55:53.737Z,17.23
2022-08-08T00:58:54.713Z,17.19
2022-08-08T01:01:38.198Z,17.25
2022-08-08T01:05:01.214Z,17.24
2022-08-08T01:07:55.997Z,17.25
2022-08-08T01:10:38.146Z,17.30
2022-08-08T01:13:43.949Z,17.35
2022-08-08T01:16:16.905Z,17.21
2022-08-08T01:18:52.750Z,17.20
2022-08-08T01:22:07.536Z,17.18
2022-08-08T01:24:44.187Z,17.11
2022-08-08T01:28:00.080Z,17.10
2022-08-08T01:32:03.038Z,17.06
2022-08-08T01:34:20.316Z,17.03
2022-08-08T01:37:13.771Z,17.02
2022-08-08T01:40:14.682Z,16.94
2022-08-08T01:43:02.011Z,16.88
2022-08-08T01:45:41.449Z,16.86
2022-08-08T01:48:31.493Z,16.88
2022-08-08T01:51:32.369Z,16.78
2022-08-08T01:55:25.560Z,16.81
2022-08-08T01:58:12.087Z,16.80
2022-08-08T02:00:50.264Z,16.66
2022-08-08T02:04:01.730Z,16.60
2022-08-08T02:06:45.524Z,16.57
2022-08-08T02:10:02.390Z,16.58
2022-08-08T02:12:31.770Z,16.58
2022-08-08T02:15:16.651Z,16.56
2022-08-08T02:18:03.318Z,16.58
2022-08-08T02:21:18.155Z,16.58
2022-08-08T02:24:49.235Z,16.52
2022-08-08T02:27:24.863Z,16.46
2022-08-08T02:30:20.766Z,16.50
2022-08-08T02:33:01.555Z,16.59
2022-08-08T02:36:04.106Z,16.60
2022-08-08T02:38:29.139Z,16.70
2022-08-08T02:41:17.788Z,16.81
2022-08-08T02:44:43.014Z,16.85
2022-08-08T02:47:28.376Z,16.88
2022-08-08T02:50:17.685Z,16.92
2022-08-08T02:53:05.437Z,16.98
2022-08-08T02:55:42.575Z,17.02
2022-08-08T02:58:48.583Z,17.06
2022-08-08T03:01:32.524Z,17.14
2022-08-08T03:05:05.046Z,17.19
2022-08-08T03:07:41.130Z,17.31
2022-08-08T03:10:32.763Z,17.39
2022-08-08T03:16:00.048Z,17.53
2022-08-08T03:17:00.441Z,17.60
2022-08-08T03:20:15.625Z,17.71
2022-08-08T03:22:47.766Z,17.85
2022-08-08T03:25:18.393Z,18.04
2022-08-08T03:27:59.535Z,18.29
2022-08-08T03:30:32.334Z,18.64
2022-08-08T03:33:55.134Z,18.75
2022-08-08T03:36:27.476Z,19.12
2022-08-08T03:39:14.177Z,19.94
2022-08-08T03:42:11.561Z,21.41
2022-08-08T03:44:38.958Z,22.14
2022-08-08T03:47:20.234Z,22.83
2022-08-08T03:49:59.719Z,22.93
2022-08-08T03:52:35.553Z,23.20
2022-08-08T03:55:56.476Z,23.48
2022-08-08T03:58:31.806Z,23.74
2022-08-08T04:01:20.638Z,24.41
2022-08-08T04:03:57.933Z,24.72
2022-08-08T04:06:30.864Z,24.60
2022-08-08T04:09:10.227Z,24.72
2022-08-08T04:11:48.040Z,25.12
2022-08-08T04:14:33.880Z,25.49
2022-08-08T04:17:04.438Z,26.17
2022-08-08T04:19:36.835Z,26.31
2022-08-08T04:22:05.256Z,26.74
2022-08-08T04:24:40.199Z,27.25
2022-08-08T04:27:42.806Z,27.02
2022-08-08T04:30:17.462Z,27.14
2022-08-08T04:32:50.437Z,27.24
2022-08-08T04:35:22.470Z,27.64
2022-08-08T04:37:52.214Z,28.16
2022-08-08T04:40:25.340Z,28.54
2022-08-08T04:43:00.858Z,28.84
2022-08-08T04:45:51.490Z,28.70
2022-08-08T04:48:21.741Z,28.60
2022-08-08T04:50:51.098Z,28.77
2022-08-08T04:54:36.323Z,28.37
2022-08-08T04:56:14.170Z,29.05
2022-08-08T04:58:41.954Z,28.68
2022-08-08T05:01:11.260Z,29.13
2022-08-08T05:04:11.161Z,29.54
2022-08-08T05:06:39.497Z,29.19
2022-08-08T05:09:09.705Z,29.48
2022-08-08T05:11:41.733Z,30.08
2022-08-08T05:14:12.897Z,30.22
2022-08-08T05:16:51.733Z,30.56
2022-08-08T05:20:12.849Z,30.90
2022-08-08T05:22:18.249Z,31.09
2022-08-08T05:24:49.621Z,30.98
2022-08-08T05:27:21.682Z,30.28
2022-08-08T05:29:52.282Z,30.77
2022-08-08T05:32:27.614Z,31.12
2022-08-08T05:35:04.804Z,30.29
2022-08-08T05:37:52.107Z,30.62
2022-08-08T05:40:34.076Z,30.69
2022-08-08T05:43:17.204Z,30.79
2022-08-08T05:46:08.041Z,31.39
2022-08-08T05:48:41.722Z,31.10
2022-08-08T05:51:14.597Z,30.02
2022-08-08T05:53:56.264Z,29.76
2022-08-08T05:56:42.220Z,29.39
2022-08-08T06:00:01.147Z,28.36
2022-08-08T06:02:40.827Z,28.07
2022-08-08T06:05:34.574Z,27.99
2022-08-08T06:08:10.412Z,27.64
2022-08-08T06:10:59.644Z,27.63
2022-08-08T06:13:35.555Z,27.51
2022-08-08T06:16:19.131Z,27.47
2022-08-08T06:19:07.364Z,27.69
2022-08-08T06:21:48.740Z,27.73
2022-08-08T06:24:35.954Z,27.89
2022-08-08T06:27:09.295Z,27.97
2022-08-08T06:29:59.734Z,28.09
2022-08-08T06:32:32.160Z,28.22
2022-08-08T06:36:07.959Z,28.27
2022-08-08T06:38:14.131Z,27.94
2022-08-08T06:40:48.748Z,27.92
2022-08-08T06:43:33.744Z,28.08
2022-08-08T06:46:13.948Z,28.23
2022-08-08T06:48:46.428Z,28.42
2022-08-08T06:51:16.969Z,28.23
2022-08-08T06:53:51.182Z,28.42
2022-08-08T06:56:32.858Z,28.42
2022-08-08T06:59:12.220Z,28.51
2022-08-08T07:02:24.398Z,28.56
2022-08-08T07:05:12.043Z,28.58
2022-08-08T07:07:57.866Z,28.74
2022-08-08T07:10:34.457Z,28.64
2022-08-08T07:13:08.798Z,28.84
2022-08-08T07:16:04.422Z,28.85
2022-08-08T07:18:57.707Z,28.97
2022-08-08T07:21:36.776Z,29.07
2022-08-08T07:24:12.599Z,29.14
2022-08-08T07:26:52.916Z,29.18
2022-08-08T07:29:59.677Z,29.09
2022-08-08T07:32:15.615Z,29.23
2022-08-08T07:35:00.170Z,29.28
2022-08-08T07:37:56.456Z,29.32
2022-08-08T07:40:40.187Z,29.48
2022-08-08T07:43:12.549Z,29.58
2022-08-08T07:46:05.034Z,29.66
2022-08-08T07:48:34.942Z,29.64
2022-08-08T07:51:04.595Z,29.82
2022-08-08T07:54:00.766Z,29.79
2022-08-08T07:56:36.065Z,29.91
2022-08-08T07:59:11.009Z,30.05
2022-08-08T08:02:32.970Z,30.00
2022-08-08T08:04:39.898Z,30.11
2022-08-08T08:07:11.912Z,30.18
2022-08-08T08:09:42.128Z,30.14
2022-08-08T08:12:26.451Z,30.15
2022-08-08T08:15:05.387Z,30.34
2022-08-08T08:17:48.610Z,30.45
2022-08-08T08:20:20.929Z,30.44
2022-08-08T08:22:50.699Z,30.56
2022-08-08T08:25:19.425Z,30.65
2022-08-08T08:28:09.392Z,30.78
2022-08-08T08:30:39.237Z,30.87
2022-08-08T08:33:10.846Z,30.96
2022-08-08T08:36:19.211Z,30.98
2022-08-08T08:38:28.846Z,31.12
2022-08-08T08:41:06.221Z,31.20
2022-08-08T08:43:46.750Z,31.27
2022-08-08T08:46:17.766Z,31.32
2022-08-08T08:48:49.175Z,31.34
2022-08-08T08:51:19.559Z,31.42
2022-08-08T08:53:56.535Z,31.68
2022-08-08T08:56:31.975Z,31.74
2022-08-08T08:59:15.770Z,31.95
2022-08-08T09:01:52.186Z,31.87
2022-08-08T09:04:31.164Z,31.88
2022-08-08T09:07:02.893Z,31.97
2022-08-08T09:09:48.100Z,31.98
2022-08-08T09:12:27.266Z,32.01
2022-08-08T09:14:58.910Z,32.20
2022-08-08T09:17:52.236Z,32.31
2022-08-08T09:22:02.129Z,32.34
2022-08-08T09:23:17.843Z,32.57
2022-08-08T09:26:04.162Z,32.76
2022-08-08T09:28:39.523Z,32.73
2022-08-08T09:31:55.924Z,32.77
2022-08-08T09:34:32.471Z,32.92
2022-08-08T09:37:39.675Z,33.10
2022-08-08T09:40:10.423Z,32.88
2022-08-08T09:42:44.277Z,32.86
2022-08-08T09:46:02.268Z,33.03
2022-08-08T09:48:17.738Z,33.07
2022-08-08T09:50:51.378Z,33.17
2022-08-08T09:53:53.086Z,33.30
2022-08-08T09:56:24.786Z,33.36
2022-08-08T09:59:19.970Z,33.44
2022-08-08T10:01:59.753Z,33.37
2022-08-08T10:04:41.899Z,33.44
2022-08-08T10:07:17.341Z,33.59
2022-08-08T10:10:00.322Z,33.36
2022-08-08T10:12:54.162Z,33.50
2022-08-08T10:15:27.404Z,33.54
2022-08-08T10:18:10.096Z,33.74
2022-08-08T10:20:57.386Z,33.64
2022-08-08T10:23:49.512Z,33.84
2022-08-08T10:26:40.540Z,33.78
2022-08-08T10:29:21.150Z,33.97
2022-08-08T10:32:14.981Z,34.08
2022-08-08T10:34:51.013Z,34.10
2022-08-08T10:37:34.728Z,34.09
2022-08-08T10:40:16.941Z,34.01
2022-08-08T10:42:45.409Z,33.72
2022-08-08T10:45:16.071Z,33.84
2022-08-08T10:47:48.530Z,34.05
2022-08-08T10:50:31.235Z,34.22
2022-08-08T10:53:17.047Z,34.11
2022-08-08T10:55:46.736Z,33.91
2022-08-08T10:58:16.556Z,33.97
2022-08-08T11:00:53.281Z,34.00
2022-08-08T11:04:01.161Z,33.93
2022-08-08T11:06:31.889Z,34.04
2022-08-08T11:09:09.681Z,34.17
2022-08-08T11:12:06.235Z,34.39
2022-08-08T11:14:34.621Z,34.62
2022-08-08T11:17:04.101Z,34.54
2022-08-08T11:19:32.633Z,34.61
2022-08-08T11:22:01.222Z,34.69
2022-08-08T11:24:33.658Z,34.65
2022-08-08T11:27:19.713Z,34.32
2022-08-08T11:30:19.529Z,34.45
2022-08-08T11:32:42.162Z,34.46
2022-08-08T11:35:27.314Z,34.77
2022-08-08T11:38:35.762Z,34.86
2022-08-08T11:40:52.771Z,34.95
2022-08-08T11:43:23.768Z,34.99
2022-08-08T11:46:17.545Z,35.10
2022-08-08T11:48:40.430Z,35.17
2022-08-08T11:51:37.902Z,35.38
2022-08-08T11:54:01.274Z,35.07
2022-08-08T11:56:34.859Z,35.09
2022-08-08T11:59:08.009Z,35.41
2022-08-08T12:01:37.786Z,35.41
2022-08-08T12:04:06.932Z,35.58
2022-08-08T12:06:35.579Z,35.42
2022-08-08T12:09:17.059Z,35.07
2022-08-08T12:11:49.408Z,35.38
2022-08-08T12:14:24.214Z,35.62
2022-08-08T12:16:57.439Z,35.37
2022-08-08T12:19:37.458Z,35.38
2022-08-08T12:22:20.855Z,35.24
2022-08-08T12:24:53.727Z,35.48
2022-08-08T12:27:45.095Z,35.70
2022-08-08T12:30:33.121Z,35.98
2022-08-08T12:33:07.884Z,35.97
2022-08-08T12:35:40.094Z,36.59
2022-08-08T12:38:09.233Z,36.79
2022-08-08T12:40:57.268Z,36.80
2022-08-08T12:43:46.475Z,36.65
2022-08-08T12:46:24.881Z,37.17
2022-08-08T12:49:22.158Z,37.58
2022-08-08T12:51:53.655Z,38.00
2022-08-08T12:54:35.986Z,38.58
2022-08-08T12:57:24.423Z,38.77
2022-08-08T13:00:04.946Z,38.93
2022-08-08T13:02:37.965Z,39.09
2022-08-08T13:05:26.583Z,39.45
2022-08-08T13:08:15.821Z,39.84
2022-08-08T13:10:56.664Z,40.50
2022-08-08T13:13:37.218Z,40.96
2022-08-08T13:16:26.496Z,41.39
2022-08-08T13:19:06.753Z,41.11
2022-08-08T13:21:52.660Z,40.70
2022-08-08T13:24:41.927Z,41.05
2022-08-08T13:27:15.363Z,41.19
2022-08-08T13:30:00.233Z,41.30
2022-08-08T13:32:30.550Z,41.14
2022-08-08T13:35:00.111Z,41.27
2022-08-08T13:38:05.197Z,41.66
2022-08-08T13:40:27.559Z,42.11
2022-08-08T13:42:56.018Z,42.48
2022-08-08T13:45:24.846Z,42.95
2022-08-08T13:47:58.052Z,42.88
2022-08-08T13:50:35.441Z,42.70
2022-08-08T13:53:22.681Z,42.75
2022-08-08T13:56:01.351Z,43.13
2022-08-08T13:58:30.263Z,43.25
2022-08-08T14:00:58.038Z,42.01
2022-08-08T14:03:53.564Z,41.53
2022-08-08T14:06:32.138Z,41.55
2022-08-08T14:09:25.364Z,41.46
2022-08-08T14:11:50.531Z,41.98
2022-08-08T14:14:21.140Z,41.71
2022-08-08T14:16:53.476Z,42.09
2022-08-08T14:19:57.008Z,42.17
2022-08-08T14:22:26.585Z,42.20
2022-08-08T14:24:54.365Z,42.13
2022-08-08T14:27:30.019Z,42.66
2022-08-08T14:30:18.077Z,42.61
2022-08-08T14:32:52.844Z,42.22
2022-08-08T14:35:24.858Z,42.89
2022-08-08T14:38:33.315Z,43.26
2022-08-08T14:40:59.557Z,43.40
2022-08-08T14:44:02.823Z,42.81
2022-08-08T14:46:30.845Z,43.12
2022-08-08T14:49:02.425Z,42.56
2022-08-08T14:51:51.879Z,42.29
2022-08-08T14:54:29.259Z,42.78
2022-08-08T14:56:57.958Z,42.23
2022-08-08T14:59:43.864Z,41.69
2022-08-08T15:02:25.813Z,41.62
2022-08-08T15:05:10.700Z,41.78
2022-08-08T15:07:40.693Z,41.48
2022-08-08T15:10:12.584Z,41.30
2022-08-08T15:12:41.223Z,41.71
2022-08-08T15:15:10.277Z,41.68
2022-08-08T15:17:39.953Z,41.43
2022-08-08T15:20:14.222Z,41.33
2022-08-08T15:22:44.602Z,40.76
2022-08-08T15:25:17.785Z,40.90
2022-08-08T15:28:04.978Z,40.48
2022-08-08T15:30:45.758Z,39.67
2022-08-08T15:33:20.880Z,39.55
2022-08-08T15:36:03.837Z,39.57
2022-08-08T15:38:31.649Z,39.14
2022-08-08T15:40:59.729Z,39.16
2022-08-08T15:43:36.083Z,38.63
2022-08-08T15:46:04.928Z,38.12
2022-08-08T15:48:33.002Z,38.24
2022-08-08T15:51:07.093Z,37.66
2022-08-08T15:53:49.168Z,37.73
2022-08-08T15:56:19.866Z,37.19
2022-08-08T15:58:50.244Z,37.01
2022-08-08T16:01:18.496Z,36.60
2022-08-08T16:03:51.918Z,36.40
2022-08-08T16:06:27.799Z,35.75
2022-08-08T16:13:01.003Z,35.28
2022-08-08T16:13:10.006Z,34.07
2022-08-08T16:14:36.257Z,33.68
2022-08-08T16:17:05.886Z,33.63
2022-08-08T16:19:56.901Z,33.45
2022-08-08T16:22:29.922Z,33.06
2022-08-08T16:24:59.015Z,32.63
2022-08-08T16:27:36.898Z,32.21
2022-08-08T16:30:08.416Z,31.67
2022-08-08T16:32:42.600Z,31.38
2022-08-08T16:35:10.554Z,31.13
2022-08-08T16:37:42.895Z,30.99
2022-08-08T16:40:19.615Z,30.70
2022-08-08T16:42:54.124Z,30.44
2022-08-08T16:46:36.794Z,30.10
2022-08-08T16:48:10.007Z,29.91
2022-08-08T16:50:41.306Z,29.80
2022-08-08T16:55:01.829Z,29.59
2022-08-08T16:55:58.383Z,29.44
2022-08-08T16:58:32.659Z,29.27
2022-08-08T17:01:12.961Z,29.21
2022-08-08T17:03:58.732Z,28.95
2022-08-08T17:06:36.601Z,28.91
2022-08-08T17:09:06.074Z,28.83
2022-08-08T17:11:39.282Z,28.61
2022-08-08T17:14:19.488Z,28.50
2022-08-08T17:16:57.391Z,28.44
2022-08-08T17:19:27.649Z,28.31
2022-08-08T17:21:57.637Z,28.17
2022-08-08T17:24:30.438Z,28.12
2022-08-08T17:26:59.505Z,28.01
2022-08-08T17:29:28.192Z,27.90
2022-08-08T17:32:02.728Z,27.86
2022-08-08T17:34:53.069Z,27.80
2022-08-08T17:37:21.396Z,27.58
2022-08-08T17:40:06.027Z,27.51
2022-08-08T17:42:37.907Z,27.37
2022-08-08T17:45:07.639Z,27.31
2022-08-08T17:47:51.044Z,27.19
2022-08-08T17:50:19.056Z,27.14
2022-08-08T17:52:47.522Z,27.10
2022-08-08T17:56:03.601Z,27.04
2022-08-08T17:58:03.398Z,26.90
2022-08-08T18:00:32.000Z,26.86
2022-08-08T18:03:09.170Z,26.79
2022-08-08T18:05:49.899Z,26.75
2022-08-08T18:08:25.258Z,26.67
2022-08-08T18:11:16.142Z,26.56
2022-08-08T18:13:45.869Z,26.46
2022-08-08T18:16:20.623Z,26.33
2022-08-08T18:18:56.100Z,26.29
2022-08-08T18:22:00.301Z,26.23
2022-08-08T18:24:19.285Z,26.13
2022-08-08T18:26:54.442Z,26.05
2022-08-08T18:29:35.458Z,25.91
2022-08-08T18:32:07.922Z,25.81
2022-08-08T18:34:36.610Z,25.66
2022-08-08T18:37:06.512Z,25.59
2022-08-08T18:39:42.032Z,25.57
2022-08-08T18:42:14.402Z,25.52
2022-08-08T18:44:53.051Z,25.48
2022-08-08T18:47:25.825Z,25.42
2022-08-08T18:49:58.249Z,25.40
2022-08-08T18:52:33.557Z,25.35
2022-08-08T18:55:10.590Z,25.31
2022-08-08T18:57:43.433Z,25.29
2022-08-08T19:00:21.268Z,25.20
2022-08-08T19:02:55.459Z,25.22
2022-08-08T19:05:30.504Z,25.22
2022-08-08T19:08:25.296Z,25.15
2022-08-08T19:11:01.467Z,25.01
2022-08-08T19:13:52.517Z,25.02
2022-08-08T19:16:20.201Z,25.01
2022-08-08T19:19:00.537Z,24.96
2022-08-08T19:21:33.880Z,24.88
2022-08-08T19:24:42.159Z,24.78
2022-08-08T19:27:05.916Z,24.51
2022-08-08T19:29:40.712Z,24.48
2022-08-08T19:32:13.060Z,24.37
2022-08-08T19:34:51.565Z,24.27
2022-08-08T19:37:42.218Z,24.27
2022-08-08T19:40:14.602Z,24.25
2022-08-08T19:42:58.863Z,24.11
2022-08-08T19:45:58.273Z,24.02
2022-08-08T19:48:30.575Z,23.97
2022-08-08T19:51:01.369Z,24.00
2022-08-08T19:53:53.213Z,24.14
2022-08-08T19:56:25.937Z,24.25
2022-08-08T19:59:12.360Z,24.32
2022-08-08T20:02:02.306Z,24.21
2022-08-08T20:04:35.157Z,24.02
2022-08-08T20:08:26.721Z,23.92
2022-08-08T20:09:55.839Z,23.84
2022-08-08T20:12:32.634Z,23.73
2022-08-08T20:15:16.793Z,23.67
2022-08-08T20:17:47.698Z,23.61
2022-08-08T20:20:20.645Z,23.56
2022-08-08T20:22:54.207Z,23.59
2022-08-08T20:25:31.324Z,23.50
2022-08-08T20:28:07.194Z,23.32
2022-08-08T20:30:56.365Z,23.34
2022-08-08T20:33:27.907Z,23.22
2022-08-08T20:36:17.217Z,23.14
2022-08-08T20:38:51.089Z,22.93
2022-08-08T20:41:20.368Z,22.83
2022-08-08T20:43:49.559Z,22.68
2022-08-08T20:46:25.691Z,22.61
2022-08-08T20:48:58.524Z,22.68
2022-08-08T20:51:32.404Z,22.62
2022-08-08T20:54:13.794Z,22.50
2022-08-08T20:57:11.756Z,22.39
2022-08-08T20:59:41.271Z,22.18
2022-08-08T21:02:12.841Z,22.19
2022-08-08T21:04:50.002Z,22.22
2022-08-08T21:07:47.046Z,22.02
2022-08-08T21:10:12.606Z,21.85
2022-08-08T21:12:46.046Z,21.93
2022-08-08T21:16:03.884Z,21.93
2022-08-08T21:18:09.096Z,21.78
2022-08-08T21:20:42.518Z,21.86
2022-08-08T21:23:18.425Z,22.02
2022-08-08T21:25:54.760Z,21.96
2022-08-08T21:28:35.738Z,21.97
2022-08-08T21:31:22.157Z,22.00
2022-08-08T21:33:56.267Z,22.00
2022-08-08T21:36:29.427Z,22.00
2022-08-08T21:38:58.188Z,21.96
2022-08-08T21:41:38.212Z,21.96
2022-08-08T21:44:15.254Z,21.90
2022-08-08T21:48:05.108Z,21.80
2022-08-08T21:49:36.358Z,21.79
2022-08-08T21:54:30.894Z,21.84
2022-08-08T21:55:03.052Z,21.57
2022-08-08T21:57:41.872Z,21.58
2022-08-08T22:00:14.111Z,21.65
2022-08-08T22:02:44.333Z,21.69
2022-08-08T22:05:14.629Z,21.55
2022-08-08T22:07:48.451Z,21.47
2022-08-08T22:10:28.897Z,21.32
2022-08-08T22:13:18.805Z,21.39
2022-08-08T22:15:58.828Z,21.30
2022-08-08T22:18:30.257Z,21.25
2022-08-08T22:21:14.330Z,21.28
2022-08-08T22:23:50.254Z,21.28
2022-08-08T22:26:28.784Z,21.20
2022-08-08T22:29:13.942Z,21.34
2022-08-08T22:31:58.407Z,21.19
2022-08-08T22:34:39.509Z,21.30
2022-08-08T22:37:14.758Z,21.39
2022-08-08T22:40:01.011Z,21.42
2022-08-08T22:42:32.012Z,21.53
2022-08-08T22:45:13.593Z,21.57
2022-08-08T22:47:48.957Z,21.60
2022-08-08T22:50:26.018Z,21.57
2022-08-08T22:53:00.023Z,21.57
2022-08-08T22:55:57.600Z,21.57
2022-08-08T22:58:32.705Z,21.57
2022-08-08T23:01:16.717Z,21.58
2022-08-08T23:04:03.854Z,21.43
2022-08-08T23:06:34.097Z,21.35
2022-08-08T23:09:09.633Z,21.29
2022-08-08T23:12:27.459Z,21.28
2022-08-08T23:14:27.536Z,21.32
2022-08-08T23:16:59.815Z,21.24
2022-08-08T23:19:31.079Z,21.24
2022-08-08T23:22:04.522Z,21.24
2022-08-08T23:24:41.712Z,21.20
2022-08-08T23:27:38.000Z,20.99
2022-08-08T23:30:01.237Z,20.94
2022-08-08T23:32:30.622Z,20.88
2022-08-08T23:35:00.967Z,20.94
2022-08-08T23:38:01.938Z,20.86
2022-08-08T23:40:22.085Z,20.87
2022-08-08T23:42:51.329Z,20.90
2022-08-08T23:49:00.081Z,20.85
2022-08-08T23:49:02.532Z,20.89
2022-08-08T23:50:58.727Z,20.85
2022-08-08T23:53:55.668Z,20.83
2022-08-08T23:56:31.936Z,20.77
2022-08-08T23:59:01.058Z,20.75
